createdAt,value
2022-10-28T00:00:52.571Z,11.95
2022-10-28T00:03:19.069Z,11.81
2022-10-28T00:05:46.210Z,11.88
2022-10-28T00:08:12.652Z,11.96
2022-10-28T00:10:39.211Z,11.87
2022-10-28T00:13:05.632Z,11.99
2022-10-28T00:15:34.792Z,12.09
2022-10-28T00:18:01.387Z,12.03
2022-10-28T00:20:29.426Z,12.04
2022-10-28T00:22:55.859Z,11.96
2022-10-28T00:25:24.869Z,12.01
2022-10-28T00:27:52.581Z,12.06
2022-10-28T00:30:19.644Z,12.07
2022-10-28T00:32:46.198Z,12.32
2022-10-28T00:35:12.738Z,12.49
2022-10-28T00:37:39.194Z,12.41
2022-10-28T00:40:05.957Z,12.61
2022-10-28T00:42:32.988Z,12.62
2022-10-28T00:45:04.160Z,12.47
2022-10-28T00:47:39.997Z,12.43
2022-10-28T00:50:20.638Z,12.33
2022-10-28T00:52:53.262Z,12.53
2022-10-28T00:55:21.848Z,12.15
2022-10-28T00:57:49.272Z,12.13
2022-10-28T01:00:16.468Z,12.18
2022-10-28T01:02:50.097Z,12.44
2022-10-28T01:09:43.396Z,12.53
2022-10-28T01:12:25.264Z,12.40
2022-10-28T01:15:04.885Z,12.57
2022-10-28T01:17:56.362Z,12.36
2022-10-28T01:20:28.455Z,12.29
2022-10-28T01:22:57.613Z,12.26
2022-10-28T01:25:39.142Z,12.21
2022-10-28T01:28:30.211Z,12.19
2022-10-28T01:31:08.576Z,12.17
2022-10-28T01:33:39.202Z,12.02
2022-10-28T01:36:24.029Z,12.07
2022-10-28T01:39:06.903Z,12.05
2022-10-28T01:41:42.715Z,12.08
2022-10-28T01:44:22.086Z,11.99
2022-10-28T01:46:55.892Z,12.09
2022-10-28T01:49:52.722Z,11.88
2022-10-28T01:52:23.436Z,12.17
2022-10-28T01:54:54.425Z,12.20
2022-10-28T01:57:23.802Z,12.08
2022-10-28T01:59:51.456Z,11.93
2022-10-28T02:02:18.442Z,12.15
2022-10-28T02:04:44.861Z,12.04
2022-10-28T02:07:11.571Z,11.97
2022-10-28T02:09:51.154Z,12.21
2022-10-28T02:12:31.986Z,11.86
2022-10-28T02:15:40.399Z,12.01
2022-10-28T02:18:13.162Z,12.08
2022-10-28T02:20:53.453Z,12.18
2022-10-28T02:23:47.964Z,12.11
2022-10-28T02:26:24.516Z,12.09
2022-10-28T02:29:06.006Z,12.15
2022-10-28T02:31:37.866Z,12.09
2022-10-28T02:34:10.035Z,12.10
2022-10-28T02:36:41.571Z,12.21
2022-10-28T02:39:08.474Z,12.30
2022-10-28T02:42:01.331Z,12.31
2022-10-28T02:44:35.339Z,12.33
2022-10-28T02:47:08.658Z,12.08
2022-10-28T02:49:38.263Z,11.97
2022-10-28T02:52:07.223Z,11.89
2022-10-28T02:54:43.050Z,11.84
2022-10-28T02:57:16.866Z,11.91
2022-10-28T02:59:43.481Z,11.93
2022-10-28T03:02:09.960Z,12.10
2022-10-28T03:04:36.517Z,12.00
2022-10-28T03:07:02.986Z,12.06
2022-10-28T03:09:29.431Z,12.05
2022-10-28T03:11:55.868Z,12.17
2022-10-28T03:14:22.324Z,12.01
2022-10-28T03:16:48.710Z,12.04
2022-10-28T03:19:15.147Z,12.16
2022-10-28T03:21:41.562Z,12.14
2022-10-28T03:24:08.181Z,12.25
2022-10-28T03:26:34.590Z,12.19
2022-10-28T03:29:01.031Z,12.13
2022-10-28T03:31:27.430Z,12.08
2022-10-28T03:33:53.919Z,11.80
2022-10-28T03:36:20.391Z,11.69
2022-10-28T03:38:46.858Z,11.71
2022-10-28T03:41:13.504Z,11.58
2022-10-28T03:43:39.968Z,11.78
2022-10-28T03:46:06.381Z,11.89
2022-10-28T03:48:32.808Z,12.07
2022-10-28T03:50:59.255Z,12.17
2022-10-28T03:53:27.696Z,12.00
2022-10-28T03:55:59.255Z,12.06
2022-10-28T03:58:26.323Z,12.05
2022-10-28T04:00:53.991Z,11.95
2022-10-28T04:03:22.021Z,11.91
2022-10-28T04:05:48.880Z,11.72
2022-10-28T04:08:16.484Z,11.83
2022-10-28T04:10:47.350Z,11.96
2022-10-28T04:13:17.717Z,12.11
2022-10-28T04:15:44.180Z,12.09
2022-10-28T04:18:11.158Z,11.71
2022-10-28T04:20:38.258Z,12.03
2022-10-28T04:23:04.784Z,12.06
2022-10-28T04:25:31.172Z,12.04
2022-10-28T04:27:57.601Z,12.09
2022-10-28T04:30:24.353Z,11.92
2022-10-28T04:32:50.861Z,11.76
2022-10-28T04:35:17.314Z,11.56
2022-10-28T04:37:43.729Z,11.75
2022-10-28T04:40:10.546Z,11.48
2022-10-28T04:42:36.994Z,11.59
2022-10-28T04:45:03.665Z,11.82
2022-10-28T04:47:30.209Z,11.89
2022-10-28T04:49:57.011Z,11.96
2022-10-28T04:52:23.448Z,11.87
2022-10-28T04:54:49.906Z,11.89
2022-10-28T04:57:16.358Z,11.89
2022-10-28T04:59:42.739Z,11.91
2022-10-28T05:02:09.355Z,11.86
2022-10-28T05:04:35.939Z,11.67
2022-10-28T05:07:02.408Z,11.83
2022-10-28T05:09:28.840Z,11.63
2022-10-28T05:11:55.291Z,11.70
2022-10-28T05:14:21.716Z,11.62
2022-10-28T05:16:48.679Z,11.74
2022-10-28T05:19:15.123Z,11.57
2022-10-28T05:21:41.548Z,11.66
2022-10-28T05:24:08.147Z,11.56
2022-10-28T05:26:34.563Z,11.60
2022-10-28T05:29:00.957Z,11.57
2022-10-28T05:31:27.407Z,11.56
2022-10-28T05:33:55.337Z,11.46
2022-10-28T05:36:21.895Z,11.41
2022-10-28T05:38:49.668Z,11.48
2022-10-28T05:41:16.109Z,11.49
2022-10-28T05:43:42.638Z,11.49
2022-10-28T05:46:09.591Z,11.58
2022-10-28T05:48:36.040Z,11.50
2022-10-28T05:51:02.462Z,11.60
2022-10-28T05:53:28.935Z,11.60
2022-10-28T05:55:55.384Z,11.50
2022-10-28T05:58:21.788Z,11.69
2022-10-28T06:00:48.161Z,11.68
2022-10-28T06:03:14.558Z,11.73
2022-10-28T06:05:43.934Z,11.62
2022-10-28T06:08:12.366Z,11.71
2022-10-28T06:10:39.475Z,11.64
2022-10-28T06:13:04.467Z,11.58
2022-10-28T06:15:30.908Z,11.60
2022-10-28T06:17:57.311Z,11.59
2022-10-28T06:20:23.843Z,11.60
2022-10-28T06:22:52.246Z,11.67
2022-10-28T06:25:20.475Z,11.62
2022-10-28T06:27:55.683Z,11.78
2022-10-28T06:30:23.999Z,11.70
2022-10-28T06:32:50.721Z,11.57
2022-10-28T06:35:17.549Z,11.61
2022-10-28T06:37:43.979Z,11.53
2022-10-28T06:40:10.481Z,11.54
2022-10-28T06:42:36.946Z,11.44
2022-10-28T06:45:03.959Z,11.50
2022-10-28T06:47:32.083Z,11.34
2022-10-28T06:49:58.604Z,11.46
2022-10-28T06:52:25.047Z,11.52
2022-10-28T06:54:51.462Z,11.63
2022-10-28T06:57:17.875Z,11.68
2022-10-28T06:59:44.426Z,11.72
2022-10-28T07:02:11.883Z,11.77
2022-10-28T07:04:38.738Z,11.93
2022-10-28T07:07:05.246Z,12.06
2022-10-28T07:09:31.713Z,11.97
2022-10-28T07:12:02.232Z,11.98
2022-10-28T07:14:32.001Z,12.06
2022-10-28T07:16:58.625Z,12.10
2022-10-28T07:19:25.039Z,12.09
2022-10-28T07:21:51.476Z,12.49
2022-10-28T07:24:18.087Z,12.37
2022-10-28T07:26:44.575Z,12.51
2022-10-28T07:29:10.978Z,12.34
2022-10-28T07:31:37.415Z,12.49
2022-10-28T07:34:04.211Z,12.51
2022-10-28T07:36:30.698Z,12.67
2022-10-28T07:38:57.154Z,12.65
2022-10-28T07:41:23.976Z,12.99
2022-10-28T07:43:50.708Z,13.01
2022-10-28T07:46:18.859Z,13.03
2022-10-28T07:48:45.395Z,13.04
2022-10-28T07:51:14.300Z,13.22
2022-10-28T07:53:41.369Z,13.38
2022-10-28T07:56:10.384Z,13.42
2022-10-28T07:58:37.167Z,13.52
2022-10-28T08:01:08.493Z,13.63
2022-10-28T08:03:38.956Z,13.53
2022-10-28T08:06:12.076Z,13.58
2022-10-28T08:08:39.631Z,13.68
2022-10-28T08:11:13.746Z,13.78
2022-10-28T08:13:40.549Z,14.00
2022-10-28T08:16:08.145Z,14.04
2022-10-28T08:18:35.689Z,13.88
2022-10-28T08:21:03.726Z,14.14
2022-10-28T08:23:30.387Z,14.42
2022-10-28T08:25:57.198Z,14.14
2022-10-28T08:28:24.206Z,14.35
2022-10-28T08:31:04.277Z,14.76
2022-10-28T08:33:35.541Z,15.04
2022-10-28T08:36:02.130Z,15.76
2022-10-28T08:38:28.594Z,15.83
2022-10-28T08:41:22.445Z,15.67
2022-10-28T08:43:57.268Z,15.56
2022-10-28T08:46:30.370Z,15.11
2022-10-28T08:48:57.093Z,15.26
2022-10-28T08:51:55.394Z,15.32
2022-10-28T08:54:27.399Z,15.44
2022-10-28T08:56:56.124Z,15.87
2022-10-28T08:59:29.267Z,16.18
2022-10-28T09:02:18.596Z,16.83
2022-10-28T09:04:46.803Z,17.62
2022-10-28T09:07:19.106Z,18.07
2022-10-28T09:09:46.250Z,18.06
2022-10-28T09:12:16.252Z,18.16
2022-10-28T09:15:22.930Z,18.76
2022-10-28T09:18:11.188Z,18.08
2022-10-28T09:20:53.877Z,18.67
2022-10-28T09:23:30.753Z,18.92
2022-10-28T09:26:24.507Z,19.98
2022-10-28T09:28:54.620Z,19.60
2022-10-28T09:31:36.446Z,20.07
2022-10-28T09:34:05.573Z,20.34
2022-10-28T09:36:42.203Z,19.95
2022-10-28T09:39:18.422Z,21.07
2022-10-28T09:41:47.219Z,20.75
2022-10-28T09:44:37.259Z,20.64
2022-10-28T09:47:12.094Z,20.97
2022-10-28T09:49:39.943Z,20.92
2022-10-28T09:52:15.252Z,20.28
2022-10-28T09:54:49.107Z,20.55
2022-10-28T09:57:17.381Z,20.98
2022-10-28T09:59:44.520Z,21.23
2022-10-28T10:02:26.973Z,20.86
2022-10-28T10:04:57.627Z,20.28
2022-10-28T10:07:40.775Z,19.80
2022-10-28T10:10:23.321Z,20.30
2022-10-28T10:12:52.533Z,20.17
2022-10-28T10:15:30.867Z,20.58
2022-10-28T10:18:01.969Z,20.75
2022-10-28T10:20:28.880Z,20.63
2022-10-28T10:22:55.596Z,20.83
2022-10-28T10:25:29.944Z,20.85
2022-10-28T10:27:59.668Z,21.06
2022-10-28T10:30:39.716Z,20.75
2022-10-28T10:33:12.230Z,21.14
2022-10-28T10:35:38.770Z,20.72
2022-10-28T10:38:06.879Z,20.94
2022-10-28T10:40:53.584Z,21.34
2022-10-28T10:43:33.981Z,21.41
2022-10-28T10:46:05.895Z,21.27
2022-10-28T10:48:36.305Z,21.36
2022-10-28T10:51:09.422Z,21.08
2022-10-28T10:53:37.913Z,21.25
2022-10-28T10:56:08.571Z,21.51
2022-10-28T10:58:39.959Z,21.47
2022-10-28T11:01:07.825Z,21.61
2022-10-28T11:03:50.339Z,21.25
2022-10-28T11:06:41.730Z,21.23
2022-10-28T11:09:22.631Z,21.69
2022-10-28T11:11:49.054Z,21.90
2022-10-28T11:14:15.423Z,21.95
2022-10-28T11:16:47.709Z,22.22
2022-10-28T11:19:44.669Z,22.42
2022-10-28T11:22:41.684Z,22.65
2022-10-28T11:25:40.527Z,23.06
2022-10-28T11:28:28.793Z,23.18
2022-10-28T11:31:04.099Z,23.25
2022-10-28T11:33:47.142Z,24.54
2022-10-28T11:36:16.312Z,23.78
2022-10-28T11:39:18.063Z,24.35
2022-10-28T11:42:08.037Z,24.28
2022-10-28T11:44:44.822Z,23.98
2022-10-28T11:47:26.080Z,25.21
2022-10-28T11:50:11.209Z,24.54
2022-10-28T11:53:06.444Z,25.33
2022-10-28T11:55:39.219Z,24.72
2022-10-28T11:58:43.665Z,23.76
2022-10-28T12:01:34.842Z,22.75
2022-10-28T12:04:28.734Z,22.67
2022-10-28T12:07:33.436Z,21.77
2022-10-28T12:10:20.742Z,21.98
2022-10-28T12:12:55.947Z,22.82
2022-10-28T12:15:55.527Z,23.59
2022-10-28T12:18:33.674Z,23.91
2022-10-28T12:21:00.191Z,22.67
2022-10-28T12:23:29.245Z,22.26
2022-10-28T12:25:58.974Z,21.23
2022-10-28T12:28:30.233Z,21.65
2022-10-28T12:30:58.198Z,21.76
2022-10-28T12:33:39.422Z,21.43
2022-10-28T12:36:08.863Z,21.52
2022-10-28T12:38:54.036Z,22.37
2022-10-28T12:41:26.604Z,24.66
2022-10-28T12:44:04.520Z,24.85
2022-10-28T12:46:41.203Z,25.14
2022-10-28T12:49:18.489Z,25.28
2022-10-28T12:51:44.916Z,25.69
2022-10-28T12:54:14.989Z,24.35
2022-10-28T12:57:08.055Z,23.63
2022-10-28T12:59:39.464Z,21.79
2022-10-28T13:02:16.921Z,21.04
2022-10-28T13:04:43.553Z,20.75
2022-10-28T13:07:32.973Z,20.27
2022-10-28T13:13:08.094Z,20.17
2022-10-28T13:15:53.304Z,20.46
2022-10-28T13:18:58.069Z,20.37
2022-10-28T13:21:30.481Z,20.37
2022-10-28T13:24:01.914Z,20.24
2022-10-28T13:26:36.519Z,20.57
2022-10-28T13:29:07.381Z,20.15
2022-10-28T13:31:42.091Z,20.11
2022-10-28T17:17:31.229Z,17.56
2022-10-28T17:19:57.770Z,17.45
2022-10-28T17:34:06.266Z,17.05
2022-10-28T17:36:33.902Z,17.05
2022-10-28T17:39:00.408Z,17.12
2022-10-28T17:41:26.893Z,17.13
2022-10-28T17:43:54.311Z,16.98
2022-10-28T17:46:21.542Z,17.09
2022-10-28T17:48:48.511Z,16.91
2022-10-28T17:51:15.408Z,16.96
2022-10-28T17:53:41.946Z,16.86
2022-10-28T17:56:08.663Z,16.89
2022-10-28T17:58:35.194Z,16.79
2022-10-28T18:01:05.042Z,16.75
2022-10-28T18:03:38.116Z,16.83
2022-10-28T18:06:07.396Z,16.78
2022-10-28T18:08:35.841Z,16.78
2022-10-28T18:22:28.657Z,16.51
2022-10-28T18:24:56.620Z,16.50
2022-10-28T18:27:23.336Z,16.50
2022-10-28T18:29:49.851Z,16.54
2022-10-28T18:32:16.386Z,16.52
2022-10-28T18:34:42.910Z,16.55
2022-10-28T18:37:09.882Z,16.42
2022-10-28T18:39:36.266Z,16.54
2022-10-28T18:42:03.695Z,16.51
2022-10-28T18:44:31.887Z,16.38
2022-10-28T18:46:59.092Z,16.44
2022-10-28T18:49:25.489Z,16.48
2022-10-28T18:51:51.881Z,16.51
2022-10-28T18:54:18.314Z,16.32
2022-10-28T18:56:47.772Z,16.18
2022-10-28T18:59:15.142Z,16.35
2022-10-28T19:01:46.495Z,16.36
2022-10-28T19:04:14.222Z,16.33
2022-10-28T19:06:41.131Z,16.18
2022-10-28T19:09:07.797Z,16.05
2022-10-28T19:11:34.886Z,16.11
2022-10-28T19:14:04.618Z,16.28
2022-10-28T19:16:33.426Z,16.27
2022-10-28T19:19:01.730Z,16.33
2022-10-28T19:21:29.344Z,16.19
2022-10-28T19:23:56.195Z,16.04
2022-10-28T19:26:23.290Z,16.11
2022-10-28T19:28:50.732Z,16.15
2022-10-28T19:31:23.021Z,16.03
2022-10-28T19:33:51.453Z,16.04
2022-10-28T19:36:26.710Z,16.07
2022-10-28T19:38:54.501Z,16.08
2022-10-28T19:41:23.513Z,16.04
2022-10-28T19:43:56.882Z,15.92
2022-10-28T19:46:28.197Z,15.98
2022-10-28T19:48:56.807Z,16.02
2022-10-28T19:51:27.151Z,15.89
2022-10-28T19:53:58.611Z,15.87
2022-10-28T19:56:26.028Z,15.79
2022-10-28T19:58:54.972Z,16.03
2022-10-28T20:01:23.327Z,15.87
2022-10-28T20:03:51.528Z,15.87
2022-10-28T20:06:19.636Z,15.86
2022-10-28T20:08:47.970Z,15.84
2022-10-28T20:11:18.924Z,15.75
2022-10-28T20:13:58.303Z,15.93
2022-10-28T20:16:25.633Z,15.77
2022-10-28T20:18:54.081Z,15.89
2022-10-28T20:21:22.177Z,15.69
2022-10-28T20:26:17.999Z,15.75
2022-10-28T20:28:44.444Z,15.83
2022-10-28T20:31:13.376Z,15.75
2022-10-28T20:33:41.401Z,15.63
2022-10-28T20:36:22.081Z,15.64
2022-10-28T20:38:48.466Z,15.73
2022-10-28T20:41:16.197Z,15.82
2022-10-28T20:43:42.787Z,15.76
2022-10-28T20:46:09.441Z,15.87
2022-10-28T20:48:35.844Z,15.61
2022-10-28T20:51:02.559Z,15.55
2022-10-28T20:53:34.095Z,15.61
2022-10-28T20:56:01.612Z,15.67
2022-10-28T20:58:30.150Z,15.70
2022-10-28T21:01:06.543Z,15.52
2022-10-28T21:03:33.181Z,15.61
2022-10-28T21:06:02.308Z,15.65
2022-10-28T21:08:29.014Z,15.74
2022-10-28T21:10:55.436Z,15.74
2022-10-28T21:13:22.014Z,15.79
2022-10-28T21:15:50.801Z,15.71
2022-10-28T21:18:19.624Z,15.53
2022-10-28T21:20:46.110Z,15.60
2022-10-28T21:23:13.097Z,15.61
2022-10-28T21:25:40.023Z,15.50
2022-10-28T21:28:06.439Z,15.35
2022-10-28T21:30:32.853Z,15.52
2022-10-28T21:32:59.313Z,15.42
2022-10-28T21:35:26.809Z,15.29
2022-10-28T21:37:54.637Z,15.27
2022-10-28T21:40:21.217Z,15.13
2022-10-28T21:42:50.457Z,15.11
2022-10-28T21:45:17.769Z,15.22
2022-10-28T21:47:44.246Z,15.23
2022-10-28T21:50:10.798Z,15.21
2022-10-28T21:52:37.291Z,15.13
2022-10-28T21:55:09.934Z,15.23
2022-10-28T21:57:46.906Z,15.21
2022-10-28T22:00:13.845Z,15.22
2022-10-28T22:02:40.427Z,15.25
2022-10-28T22:05:07.294Z,15.18
2022-10-28T22:07:33.704Z,15.10
2022-10-28T22:10:00.112Z,15.12
2022-10-28T22:12:26.585Z,15.08
2022-10-28T22:14:53.172Z,15.12
2022-10-28T22:17:19.612Z,15.27
2022-10-28T22:19:46.416Z,15.13
2022-10-28T22:22:13.744Z,15.13
2022-10-28T22:24:40.356Z,15.10
2022-10-28T22:27:06.753Z,15.05
2022-10-28T22:29:33.198Z,15.06
2022-10-28T22:31:59.765Z,14.99
2022-10-28T22:34:26.192Z,15.01
2022-10-28T22:36:52.816Z,14.95
2022-10-28T22:39:19.253Z,14.85
2022-10-28T22:41:45.696Z,15.00
2022-10-28T22:44:12.321Z,15.00
2022-10-28T22:46:40.727Z,15.11
2022-10-28T22:49:07.242Z,15.01
2022-10-28T22:51:33.675Z,15.13
2022-10-28T22:54:00.133Z,15.01
2022-10-28T22:56:27.528Z,14.93
2022-10-28T22:59:01.826Z,15.07
2022-10-28T23:01:29.792Z,15.08
2022-10-28T23:03:56.429Z,15.01
2022-10-28T23:06:25.240Z,15.04
2022-10-28T23:08:51.741Z,15.04
2022-10-28T23:11:19.875Z,14.95
2022-10-28T23:13:46.715Z,15.03
2022-10-28T23:16:15.172Z,14.97
2022-10-28T23:18:43.182Z,15.07
2022-10-28T23:21:14.976Z,15.06
2022-10-28T23:23:42.496Z,15.06
2022-10-28T23:26:10.479Z,15.09
2022-10-28T23:28:36.972Z,15.22
2022-10-28T23:31:05.522Z,15.11
2022-10-28T23:33:33.322Z,15.20
2022-10-28T23:36:02.074Z,15.20
2022-10-28T23:38:28.506Z,15.15
2022-10-28T23:41:07.245Z,15.13
2022-10-28T23:43:34.515Z,15.08
2022-10-28T23:46:01.766Z,15.04
2022-10-28T23:48:29.131Z,14.95
2022-10-28T23:50:56.561Z,14.97
2022-10-28T23:53:24.030Z,15.00
2022-10-28T23:55:51.266Z,14.99
2022-10-28T23:58:19.323Z,14.96
